Terminal Aerodrome Forecast
Issued by NWS

Home | Current Version | Previous Version | Text Only | Print | Product List | Glossary On
Versions: 1 2 3 4 5 6 7 8 9 10 11 12 13 14 15 16 17
000
FTUS41 KILN 291100 RRA
TAFLCK
TAF
KLCK 291140Z 2912/3012 36006KT P6SM SKC
     FM292100 01006KT P6SM SCT025 SCT150
      TEMPO 2921/2923 BKN025
     FM300000 01006KT P6SM BKN200=

USA.gov is the U.S. government's official web portal to all federal, state and local government web resources and services.